createdAt,value
2016-12-27T00:00:29.378Z,6.33
2016-12-27T00:02:29.409Z,6.3
2016-12-27T00:03:29.428Z,6.49
2016-12-27T00:04:29.446Z,6.37
2016-12-27T00:05:29.468Z,6.49
2016-12-27T00:06:29.484Z,6.44
2016-12-27T00:07:29.501Z,6.36
2016-12-27T00:08:29.519Z,6.55
2016-12-27T00:09:29.533Z,6.56
2016-12-27T00:10:29.558Z,6.52
2016-12-27T00:11:44.488Z,6.54
2016-12-27T00:12:29.588Z,6.55
2016-12-27T00:13:29.657Z,6.58
2016-12-27T00:14:29.628Z,6.56
2016-12-27T00:15:44.558Z,6.52
2016-12-27T00:16:29.668Z,6.62
2016-12-27T00:17:29.675Z,6.58
2016-12-27T00:18:29.692Z,6.58
2016-12-27T00:19:29.710Z,6.62
2016-12-27T00:20:29.732Z,6.61
2016-12-27T00:21:29.746Z,6.55
2016-12-27T00:22:29.766Z,6.61
2016-12-27T00:24:29.798Z,6.67
2016-12-27T00:25:29.816Z,6.64
2016-12-27T00:26:29.834Z,6.61
2016-12-27T00:27:44.770Z,6.59
2016-12-27T00:28:29.868Z,6.59
2016-12-27T00:29:29.897Z,6.61
2016-12-27T00:30:29.905Z,6.67
2016-12-27T00:31:44.845Z,6.58
2016-12-27T00:33:29.957Z,6.58
2016-12-27T00:34:29.974Z,6.64
2016-12-27T00:35:29.991Z,6.58
2016-12-27T00:36:30.014Z,6.64
2016-12-27T00:38:30.045Z,6.55
2016-12-27T00:39:30.064Z,6.64
2016-12-27T00:40:30.088Z,6.59
2016-12-27T00:41:30.099Z,6.55
2016-12-27T00:42:45.035Z,6.55
2016-12-27T00:43:45.053Z,6.62
2016-12-27T00:44:30.180Z,6.58
2016-12-27T00:45:30.170Z,6.62
2016-12-27T00:46:30.189Z,6.59
2016-12-27T00:47:45.122Z,6.67
2016-12-27T00:48:30.225Z,6.66
2016-12-27T00:49:30.241Z,6.69
2016-12-27T00:50:30.259Z,6.62
2016-12-27T00:51:30.275Z,6.59
2016-12-27T00:52:30.297Z,6.58
2016-12-27T00:53:30.311Z,6.67
2016-12-27T00:54:30.331Z,6.61
2016-12-27T00:55:30.347Z,6.59
2016-12-27T00:56:30.365Z,6.58
2016-12-27T00:57:30.387Z,6.54
2016-12-27T00:58:45.320Z,6.54
2016-12-27T00:59:30.419Z,6.62
2016-12-27T01:00:30.436Z,6.55
2016-12-27T01:01:30.453Z,6.55
2016-12-27T01:02:30.469Z,6.55
2016-12-27T01:03:45.407Z,6.52
2016-12-27T01:04:30.511Z,6.51
2016-12-27T01:05:30.526Z,6.55
2016-12-27T01:06:30.541Z,6.55
2016-12-27T01:07:45.486Z,6.44
2016-12-27T01:08:30.579Z,6.41
2016-12-27T01:09:30.595Z,6.41
2016-12-27T01:12:30.655Z,6.48
2016-12-27T01:13:30.666Z,6.43
2016-12-27T01:14:45.602Z,6.41
2016-12-27T01:15:30.705Z,6.52
2016-12-27T01:16:30.720Z,6.55
2016-12-27T01:17:30.738Z,6.55
2016-12-27T01:18:45.675Z,6.54
2016-12-27T01:19:30.774Z,6.49
2016-12-27T01:20:30.790Z,6.56
2016-12-27T01:21:30.815Z,6.34
2016-12-27T01:22:30.826Z,6.49
2016-12-27T01:23:30.846Z,6.46
2016-12-27T01:25:30.884Z,6.4
2016-12-27T01:26:30.900Z,6.56
2016-12-27T01:27:30.918Z,6.59
2016-12-27T01:28:30.931Z,6.61
2016-12-27T01:29:30.955Z,6.61
2016-12-27T01:30:30.972Z,6.61
2016-12-27T01:32:31.007Z,6.69
2016-12-27T01:33:31.023Z,6.69
2016-12-27T01:34:31.041Z,6.77
2016-12-27T01:35:31.058Z,6.71
2016-12-27T01:36:31.075Z,6.73
2016-12-27T01:37:31.094Z,6.67
2016-12-27T01:38:31.112Z,6.73
2016-12-27T01:40:31.148Z,6.76
2016-12-27T01:42:31.188Z,6.73
2016-12-27T01:44:31.218Z,6.73
2016-12-27T01:45:46.157Z,6.73
2016-12-27T01:46:31.254Z,6.71
2016-12-27T01:47:31.274Z,6.81
2016-12-27T01:48:31.593Z,6.76
2016-12-27T01:49:31.308Z,6.74
2016-12-27T01:50:46.248Z,6.81
2016-12-27T01:51:31.346Z,6.73
2016-12-27T01:52:31.361Z,6.74
2016-12-27T01:53:31.407Z,6.71
2016-12-27T01:54:31.396Z,6.66
2016-12-27T01:55:31.416Z,6.56
2016-12-27T01:56:31.433Z,6.55
2016-12-27T01:57:31.480Z,6.41
2016-12-27T01:58:31.471Z,6.44
2016-12-27T01:59:31.491Z,6.43
2016-12-27T02:00:31.508Z,6.48
2016-12-27T02:01:31.548Z,6.38
2016-12-27T02:02:46.762Z,6.33
2016-12-27T02:03:46.476Z,6.31
2016-12-27T02:04:31.577Z,6.22
2016-12-27T02:05:31.593Z,6.27
2016-12-27T02:06:46.531Z,6.25
2016-12-27T02:07:31.628Z,6.18
2016-12-27T02:08:31.767Z,6.25
2016-12-27T02:09:31.664Z,6.27
2016-12-27T02:10:31.686Z,6.3
2016-12-27T02:11:31.702Z,6.27
2016-12-27T02:12:31.718Z,6.25
2016-12-27T02:13:31.738Z,6.22
2016-12-27T02:14:31.755Z,6.27
2016-12-27T02:15:31.772Z,6.27
2016-12-27T02:16:31.788Z,6.3
2016-12-27T02:17:31.809Z,6.28
2016-12-27T02:18:46.744Z,6.34
2016-12-27T02:19:46.760Z,6.41
2016-12-27T02:20:32.162Z,6.44
2016-12-27T02:21:31.879Z,6.48
2016-12-27T02:22:46.813Z,6.3
2016-12-27T02:23:31.914Z,6.3
2016-12-27T02:24:31.930Z,6.3
2016-12-27T02:25:32.252Z,6.33
2016-12-27T02:26:31.964Z,6.41
2016-12-27T02:27:31.986Z,6.33
2016-12-27T02:28:32.005Z,6.3
2016-12-27T02:29:32.022Z,6.43
2016-12-27T02:30:32.038Z,6.38
2016-12-27T02:31:32.057Z,6.54
2016-12-27T02:32:32.073Z,6.54
2016-12-27T02:33:32.090Z,6.55
2016-12-27T02:34:47.027Z,6.61
2016-12-27T02:35:32.128Z,6.62
2016-12-27T02:36:32.165Z,6.56
2016-12-27T02:37:32.163Z,6.61
2016-12-27T02:38:47.104Z,6.61
2016-12-27T02:39:32.199Z,6.67
2016-12-27T02:40:32.219Z,6.62
2016-12-27T02:41:32.235Z,6.73
2016-12-27T02:42:32.252Z,6.71
2016-12-27T02:43:32.276Z,6.69
2016-12-27T02:44:32.291Z,6.77
2016-12-27T02:46:32.323Z,6.74
2016-12-27T02:47:32.341Z,6.76
2016-12-27T02:48:32.360Z,6.73
2016-12-27T02:49:32.416Z,6.7
2016-12-27T02:50:32.396Z,6.62
2016-12-27T02:51:32.413Z,6.61
2016-12-27T02:52:32.431Z,6.62
2016-12-27T02:53:47.366Z,6.69
2016-12-27T02:54:32.467Z,6.76
2016-12-27T02:55:32.482Z,6.71
2016-12-27T02:56:32.500Z,6.79
2016-12-27T02:57:32.519Z,6.76
2016-12-27T02:58:32.536Z,6.7
2016-12-27T03:01:47.511Z,6.79
2016-12-27T03:03:32.627Z,6.69
2016-12-27T03:04:47.562Z,6.73
2016-12-27T03:05:47.579Z,6.85
2016-12-27T03:06:47.596Z,6.76
2016-12-27T03:07:32.697Z,6.84
2016-12-27T03:08:32.716Z,6.84
2016-12-27T03:09:32.731Z,6.81
2016-12-27T03:10:32.755Z,6.85
2016-12-27T03:11:32.793Z,6.94
2016-12-27T03:12:32.810Z,6.89
2016-12-27T03:13:32.801Z,6.97
2016-12-27T03:14:32.826Z,6.92
2016-12-27T03:16:32.857Z,6.87
2016-12-27T03:17:32.873Z,6.92
2016-12-27T03:18:47.812Z,6.94
2016-12-27T03:19:32.913Z,6.92
2016-12-27T03:20:32.929Z,6.94
2016-12-27T03:21:32.945Z,6.89
2016-12-27T03:22:32.964Z,6.95
2016-12-27T03:23:32.980Z,6.89
2016-12-27T03:24:33.002Z,6.95
2016-12-27T03:25:47.936Z,6.92
2016-12-27T03:26:33.034Z,6.95
2016-12-27T03:27:33.051Z,6.89
2016-12-27T03:28:33.070Z,6.97
2016-12-27T03:29:33.087Z,6.94
2016-12-27T03:31:33.126Z,6.94
2016-12-27T03:32:33.142Z,6.95
2016-12-27T03:33:33.161Z,6.97
2016-12-27T03:34:33.179Z,6.97
2016-12-27T03:35:33.193Z,6.97
2016-12-27T03:36:33.213Z,6.97
2016-12-27T03:37:33.230Z,6.99
2016-12-27T03:38:33.251Z,6.91
2016-12-27T03:39:33.265Z,6.99
2016-12-27T03:40:33.286Z,7.13
2016-12-27T03:41:48.220Z,7.09
2016-12-27T03:42:33.321Z,7.1
2016-12-27T03:43:33.336Z,7.13
2016-12-27T03:44:33.355Z,7.13
2016-12-27T03:45:33.372Z,7.17
2016-12-27T03:46:33.388Z,7.09
2016-12-27T03:47:33.409Z,7.16
2016-12-27T03:48:33.426Z,7.2
2016-12-27T03:49:33.444Z,7.13
2016-12-27T03:50:33.461Z,7.13
2016-12-27T03:51:48.399Z,7.13
2016-12-27T03:52:48.416Z,7.17
2016-12-27T03:53:33.518Z,7.16
2016-12-27T03:54:33.534Z,7.12
2016-12-27T03:55:33.552Z,7.17
2016-12-27T03:56:33.573Z,7.09
2016-12-27T03:57:48.506Z,7.12
2016-12-27T03:58:33.606Z,7.13
2016-12-27T03:59:33.622Z,7.07
2016-12-27T04:00:33.641Z,7.06
2016-12-27T04:01:33.658Z,7.15
2016-12-27T04:02:33.675Z,7.1
2016-12-27T04:03:33.698Z,7.07
2016-12-27T04:05:33.730Z,7.13
2016-12-27T04:06:33.749Z,7.15
2016-12-27T04:07:33.766Z,7.12
2016-12-27T04:08:33.790Z,7.16
2016-12-27T04:09:33.803Z,7.13
2016-12-27T04:10:33.821Z,7.16
2016-12-27T04:11:33.839Z,7.1
2016-12-27T04:12:33.858Z,7.13
2016-12-27T04:13:48.793Z,7.09
2016-12-27T04:14:33.893Z,7.15
2016-12-27T04:15:33.911Z,7.21
2016-12-27T04:16:34.235Z,7.16
2016-12-27T04:17:33.948Z,7.2
2016-12-27T04:18:33.968Z,7.27
2016-12-27T04:20:34.001Z,7.25
2016-12-27T04:21:34.021Z,7.3
2016-12-27T04:22:34.039Z,7.21
2016-12-27T04:23:34.056Z,7.27
2016-12-27T04:24:34.073Z,7.09
2016-12-27T04:25:34.094Z,7.15
2016-12-27T04:26:34.111Z,7.27
2016-12-27T04:27:34.130Z,7.24
2016-12-27T04:28:49.079Z,7.13
2016-12-27T04:29:34.167Z,7.12
2016-12-27T04:30:34.186Z,7.27
2016-12-27T04:31:34.202Z,7.25
2016-12-27T04:34:34.257Z,7.25
2016-12-27T04:35:34.277Z,7.24
2016-12-27T04:36:49.216Z,7.28
2016-12-27T04:37:34.312Z,7.25
2016-12-27T04:38:49.251Z,7.24
2016-12-27T04:39:49.268Z,7.28
2016-12-27T04:40:34.372Z,7.3
2016-12-27T04:41:49.303Z,7.24
2016-12-27T04:42:34.407Z,7.25
2016-12-27T04:43:34.429Z,7.27
2016-12-27T04:44:34.442Z,7.28
2016-12-27T04:45:34.459Z,7.25
2016-12-27T04:46:34.477Z,7.25
2016-12-27T04:47:34.494Z,7.27
2016-12-27T04:48:34.512Z,7.28
2016-12-27T04:49:34.536Z,7.35
2016-12-27T04:50:34.549Z,7.34
2016-12-27T04:51:34.570Z,7.4
2016-12-27T04:52:34.583Z,7.37
2016-12-27T04:54:34.621Z,7.34
2016-12-27T04:55:34.646Z,7.28
2016-12-27T04:56:34.659Z,7.28
2016-12-27T04:57:34.676Z,7.32
2016-12-27T04:58:34.695Z,7.34
2016-12-27T04:59:34.711Z,7.35
2016-12-27T05:01:34.749Z,7.35
2016-12-27T05:02:34.770Z,7.37
2016-12-27T05:03:34.785Z,7.37
2016-12-27T05:04:34.803Z,7.35
2016-12-27T05:05:34.822Z,7.37
2016-12-27T05:06:34.842Z,7.4
2016-12-27T05:07:34.857Z,7.31
2016-12-27T05:08:34.874Z,7.25
2016-12-27T05:09:34.895Z,7.21
2016-12-27T05:10:34.917Z,7.27
2016-12-27T05:11:34.932Z,7.34
2016-12-27T05:12:49.866Z,7.31
2016-12-27T05:13:34.969Z,7.35
2016-12-27T05:14:34.987Z,7.39
2016-12-27T05:15:35.008Z,7.28
2016-12-27T05:16:49.940Z,7.23
2016-12-27T05:17:35.040Z,7.24
2016-12-27T05:18:35.057Z,7.35
2016-12-27T05:19:35.077Z,7.35
2016-12-27T05:20:35.100Z,7.42
2016-12-27T05:21:35.118Z,7.37
2016-12-27T05:22:35.130Z,7.39
2016-12-27T05:23:35.147Z,7.45
2016-12-27T05:24:35.169Z,7.46
2016-12-27T05:26:50.122Z,7.43
2016-12-27T05:27:35.226Z,7.45
2016-12-27T05:28:35.242Z,7.46
2016-12-27T05:29:35.258Z,7.43
2016-12-27T05:30:35.275Z,7.39
2016-12-27T05:31:35.306Z,7.4
2016-12-27T05:32:50.229Z,7.34
2016-12-27T05:33:35.332Z,7.35
2016-12-27T05:34:35.347Z,7.37
2016-12-27T05:35:35.372Z,7.35
2016-12-27T05:36:35.385Z,7.27
2016-12-27T05:37:35.402Z,7.24
2016-12-27T05:38:35.423Z,7.25
2016-12-27T05:40:35.459Z,7.31
2016-12-27T05:42:35.494Z,7.23
2016-12-27T05:43:35.512Z,7.3
2016-12-27T05:44:35.530Z,7.23
2016-12-27T05:45:35.548Z,7.27
2016-12-27T05:46:35.567Z,7.43
2016-12-27T05:47:35.584Z,7.39
2016-12-27T05:48:50.522Z,7.27
2016-12-27T05:49:35.622Z,7.27
2016-12-27T05:50:35.643Z,7.25
2016-12-27T05:51:35.658Z,7.25
2016-12-27T05:52:35.677Z,7.35
2016-12-27T05:53:35.697Z,7.24
2016-12-27T05:54:35.712Z,7.23
2016-12-27T05:55:35.730Z,7.24
2016-12-27T05:56:35.750Z,7.27
2016-12-27T05:57:35.768Z,7.28
2016-12-27T05:58:35.785Z,7.28
2016-12-27T05:59:50.722Z,7.25
2016-12-27T06:00:35.822Z,7.23
2016-12-27T06:01:36.154Z,7.25
2016-12-27T06:02:35.858Z,7.25
2016-12-27T06:03:50.798Z,7.24
2016-12-27T06:04:35.898Z,7.25
2016-12-27T06:05:35.914Z,7.25
2016-12-27T06:06:35.934Z,7.28
2016-12-27T06:07:35.953Z,7.25
2016-12-27T06:08:35.971Z,7.24
2016-12-27T06:09:35.988Z,7.24
2016-12-27T06:10:36.006Z,7.27
2016-12-27T06:11:36.025Z,7.17
2016-12-27T06:12:36.045Z,7.16
2016-12-27T06:13:51.014Z,7.1
2016-12-27T06:14:36.082Z,7.13
2016-12-27T06:15:36.100Z,7.1
2016-12-27T06:16:51.034Z,7.16
2016-12-27T06:17:36.136Z,7.16
2016-12-27T06:18:36.156Z,7.07
2016-12-27T06:19:36.176Z,7.03
2016-12-27T06:20:36.190Z,6.97
2016-12-27T06:21:36.208Z,6.95
2016-12-27T06:23:36.247Z,6.77
2016-12-27T06:25:36.283Z,6.74
2016-12-27T06:26:36.302Z,6.66
2016-12-27T06:28:36.339Z,6.64
2016-12-27T06:29:36.353Z,6.61
2016-12-27T06:30:51.293Z,6.55
2016-12-27T06:31:36.392Z,6.64
2016-12-27T06:32:36.409Z,6.56
2016-12-27T06:33:36.428Z,6.64
2016-12-27T06:34:36.449Z,6.69
2016-12-27T06:35:51.383Z,6.69
2016-12-27T06:36:36.481Z,6.7
2016-12-27T06:37:36.501Z,6.85
2016-12-27T06:38:36.518Z,6.76
2016-12-27T06:39:36.538Z,6.7
2016-12-27T06:40:36.555Z,6.77
2016-12-27T06:41:36.576Z,6.79
2016-12-27T06:42:36.593Z,6.85
2016-12-27T06:44:36.630Z,6.8
2016-12-27T06:45:36.645Z,6.7
2016-12-27T06:46:51.583Z,6.73
2016-12-27T06:47:36.682Z,6.8
2016-12-27T06:48:36.714Z,6.8
2016-12-27T06:49:36.718Z,6.8
2016-12-27T06:50:36.744Z,6.79
2016-12-27T06:51:51.674Z,6.81
2016-12-27T06:52:36.776Z,6.76
2016-12-27T06:53:36.789Z,6.94
2016-12-27T06:55:36.828Z,6.76
2016-12-27T06:56:36.845Z,6.81
2016-12-27T06:57:36.862Z,6.88
2016-12-27T06:59:36.901Z,6.99
2016-12-27T07:00:36.917Z,6.97
2016-12-27T07:01:36.935Z,6.94
2016-12-27T07:02:36.954Z,6.92
2016-12-27T07:03:51.890Z,6.84
2016-12-27T07:04:51.908Z,6.85
2016-12-27T07:05:37.013Z,6.79
2016-12-27T07:06:37.029Z,6.77
2016-12-27T07:07:51.962Z,6.81
2016-12-27T07:08:37.062Z,6.77
2016-12-27T07:09:37.082Z,6.74
2016-12-27T07:12:37.135Z,6.76
2016-12-27T07:13:37.159Z,6.84
2016-12-27T07:14:37.170Z,6.73
2016-12-27T07:16:37.207Z,6.76
2016-12-27T07:17:37.227Z,6.91
2016-12-27T07:18:52.163Z,6.85
2016-12-27T07:19:37.268Z,6.84
2016-12-27T07:20:37.280Z,6.95
2016-12-27T07:21:37.298Z,6.85
2016-12-27T07:22:37.315Z,6.88
2016-12-27T07:23:52.252Z,6.81
2016-12-27T07:24:37.354Z,6.73
2016-12-27T07:25:37.373Z,6.73
2016-12-27T07:26:37.387Z,6.73
2016-12-27T07:28:37.428Z,6.71
2016-12-27T07:29:37.443Z,6.7
2016-12-27T07:31:37.479Z,6.71
2016-12-27T07:32:37.498Z,6.73
2016-12-27T07:33:52.435Z,6.71
2016-12-27T07:34:52.452Z,6.71
2016-12-27T07:35:52.470Z,6.79
2016-12-27T07:36:37.570Z,6.77
2016-12-27T07:37:37.590Z,6.84
2016-12-27T07:38:52.525Z,6.88
2016-12-27T07:39:37.627Z,6.98
2016-12-27T07:40:37.647Z,6.88
2016-12-27T07:41:37.666Z,6.95
2016-12-27T07:42:37.706Z,6.91
2016-12-27T07:43:37.700Z,6.89
2016-12-27T07:44:37.714Z,6.88
2016-12-27T07:45:37.736Z,6.91
2016-12-27T07:46:37.778Z,6.89
2016-12-27T07:47:37.771Z,6.95
2016-12-27T07:48:38.092Z,6.89
2016-12-27T07:49:37.809Z,6.91
2016-12-27T07:50:37.824Z,6.89
2016-12-27T07:51:52.761Z,6.88
2016-12-27T07:52:37.884Z,6.91
2016-12-27T07:53:37.880Z,6.91
2016-12-27T07:54:37.895Z,6.97
2016-12-27T07:55:37.917Z,6.97
2016-12-27T07:56:37.951Z,6.97
2016-12-27T07:57:37.954Z,7.02
2016-12-27T07:58:37.972Z,6.98
2016-12-27T07:59:37.989Z,6.94
2016-12-27T08:00:38.031Z,7.07
2016-12-27T08:01:38.031Z,7.05
2016-12-27T08:03:38.062Z,7.02
2016-12-27T08:04:38.078Z,7.07
2016-12-27T08:05:53.017Z,6.98
2016-12-27T08:06:38.119Z,6.95
2016-12-27T08:07:38.135Z,7.1
2016-12-27T08:08:38.153Z,7.07
2016-12-27T08:09:38.171Z,7.15
2016-12-27T08:10:53.108Z,7.05
2016-12-27T08:11:38.211Z,7.13
2016-12-27T08:12:38.225Z,7.1
2016-12-27T08:13:38.272Z,6.97
2016-12-27T08:14:38.261Z,6.97
2016-12-27T08:15:38.306Z,7.06
2016-12-27T08:16:38.302Z,7.15
2016-12-27T08:17:38.315Z,7.12
2016-12-27T08:18:38.338Z,7.15
2016-12-27T08:19:38.356Z,7.15
2016-12-27T08:20:38.372Z,7.23
2016-12-27T08:21:38.391Z,7.16
2016-12-27T08:22:38.408Z,7.16
2016-12-27T08:23:38.428Z,7.12
2016-12-27T08:24:38.446Z,7.3
2016-12-27T08:25:38.767Z,7.24
2016-12-27T08:26:53.405Z,7.34
2016-12-27T08:27:38.500Z,7.25
2016-12-27T08:28:38.520Z,7.34
2016-12-27T08:29:38.537Z,7.42
2016-12-27T08:30:38.558Z,7.4
2016-12-27T08:31:38.576Z,7.39
2016-12-27T08:32:38.592Z,7.5
2016-12-27T08:34:38.630Z,7.53
2016-12-27T08:35:38.651Z,7.49
2016-12-27T08:36:38.667Z,7.53
2016-12-27T08:37:38.686Z,7.53
2016-12-27T08:38:38.706Z,7.48
2016-12-27T08:39:53.640Z,7.52
2016-12-27T08:40:38.742Z,7.49
2016-12-27T08:41:39.012Z,7.58
2016-12-27T08:42:53.697Z,7.5
2016-12-27T08:43:38.798Z,7.58
2016-12-27T08:44:38.867Z,7.53
2016-12-27T08:45:38.834Z,7.5
2016-12-27T08:47:38.870Z,7.6
2016-12-27T08:48:38.941Z,7.63
2016-12-27T08:49:38.958Z,7.58
2016-12-27T08:50:38.936Z,7.5
2016-12-27T08:51:38.945Z,7.55
2016-12-27T08:52:38.970Z,7.58
2016-12-27T08:53:38.980Z,7.58
2016-12-27T08:54:39.002Z,7.61
2016-12-27T08:55:39.019Z,7.58
2016-12-27T08:56:39.041Z,7.69
2016-12-27T08:57:39.058Z,7.64
2016-12-27T08:58:53.994Z,7.67
2016-12-27T08:59:39.093Z,7.61
2016-12-27T09:00:39.116Z,7.57
2016-12-27T09:01:39.132Z,7.63
2016-12-27T09:02:39.149Z,7.61
2016-12-27T09:03:39.169Z,7.74
2016-12-27T09:04:39.186Z,7.64
2016-12-27T09:05:39.206Z,7.71
2016-12-27T09:06:39.225Z,7.6
2016-12-27T09:07:39.244Z,7.68
2016-12-27T09:08:39.264Z,7.71
2016-12-27T09:09:54.199Z,7.61
2016-12-27T09:10:54.217Z,7.71
2016-12-27T09:11:39.329Z,7.69
2016-12-27T09:12:39.343Z,7.77
2016-12-27T09:13:54.273Z,7.8
2016-12-27T09:14:39.378Z,7.67
2016-12-27T09:15:39.394Z,7.83
2016-12-27T09:16:39.412Z,7.86
2016-12-27T09:17:39.431Z,7.9
2016-12-27T09:18:39.452Z,7.83
2016-12-27T09:19:39.467Z,7.85
2016-12-27T09:20:39.490Z,7.85
2016-12-27T09:21:39.509Z,7.82
2016-12-27T09:22:39.526Z,7.86
2016-12-27T09:23:39.541Z,7.9
2016-12-27T09:24:54.480Z,7.9
2016-12-27T09:25:39.585Z,7.87
2016-12-27T09:26:39.599Z,7.79
2016-12-27T09:27:39.625Z,7.89
2016-12-27T09:28:39.637Z,7.83
2016-12-27T09:29:39.658Z,7.89
2016-12-27T09:30:39.674Z,7.86
2016-12-27T09:31:39.693Z,7.82
2016-12-27T09:32:39.712Z,7.87
2016-12-27T09:33:39.728Z,7.85
2016-12-27T09:34:39.778Z,7.87
2016-12-27T09:35:39.771Z,7.93
2016-12-27T09:37:39.805Z,8.05
2016-12-27T09:38:39.822Z,8
2016-12-27T09:39:39.842Z,8
2016-12-27T09:41:39.881Z,8.07
2016-12-27T09:42:39.897Z,8.04
2016-12-27T09:43:39.917Z,8.1
2016-12-27T09:44:39.939Z,8.05
2016-12-27T09:45:54.874Z,8.23
2016-12-27T09:46:39.973Z,8.16
2016-12-27T09:47:39.991Z,8.29
2016-12-27T09:48:40.011Z,8.2
2016-12-27T09:49:40.031Z,8.26
2016-12-27T09:50:40.048Z,8.22
2016-12-27T09:51:40.068Z,8.25
2016-12-27T09:52:40.090Z,8.26
2016-12-27T09:53:40.103Z,8.33
2016-12-27T09:54:40.125Z,8.36
2016-12-27T09:55:40.141Z,8.4
2016-12-27T09:56:55.080Z,8.4
2016-12-27T09:57:40.180Z,8.44
2016-12-27T09:58:40.201Z,8.26
2016-12-27T09:59:40.218Z,8.41
2016-12-27T10:00:40.240Z,8.43
2016-12-27T10:01:55.175Z,8.37
2016-12-27T10:02:40.276Z,8.34
2016-12-27T10:03:40.293Z,8.41
2016-12-27T10:04:40.313Z,8.55
2016-12-27T10:05:40.336Z,8.48
2016-12-27T10:06:40.349Z,8.45
2016-12-27T10:07:40.369Z,8.55
2016-12-27T10:08:40.389Z,8.56
2016-12-27T10:09:40.406Z,8.55
2016-12-27T10:10:40.429Z,8.58
2016-12-27T10:11:40.445Z,8.63
2016-12-27T10:12:40.462Z,8.55
2016-12-27T10:13:40.486Z,8.7
2016-12-27T10:14:55.419Z,8.65
2016-12-27T10:15:40.519Z,8.52
2016-12-27T10:16:40.539Z,8.58
2016-12-27T10:18:40.576Z,8.68
2016-12-27T10:19:40.599Z,8.62
2016-12-27T10:20:40.615Z,8.73
2016-12-27T10:21:40.636Z,8.62
2016-12-27T10:22:40.653Z,8.68
2016-12-27T10:23:40.676Z,8.71
2016-12-27T10:24:40.692Z,8.71
2016-12-27T10:25:40.707Z,8.73
2016-12-27T10:26:40.731Z,8.73
2016-12-27T10:27:40.749Z,8.74
2016-12-27T10:28:40.766Z,8.74
2016-12-27T10:29:40.789Z,8.79
2016-12-27T10:30:41.113Z,8.79
2016-12-27T10:31:40.822Z,8.77
2016-12-27T10:32:40.843Z,8.79
2016-12-27T10:33:55.782Z,8.84
2016-12-27T10:34:40.882Z,8.83
2016-12-27T10:35:40.899Z,8.84
2016-12-27T10:36:40.917Z,8.87
2016-12-27T10:37:40.936Z,8.87
2016-12-27T10:39:40.971Z,8.84
2016-12-27T10:41:41.015Z,8.84
2016-12-27T10:42:41.033Z,8.8
2016-12-27T10:43:41.056Z,8.92
2016-12-27T10:44:41.072Z,8.87
2016-12-27T10:45:56.008Z,8.89
2016-12-27T10:46:41.106Z,8.91
2016-12-27T10:47:41.126Z,8.84
2016-12-27T10:48:56.066Z,8.89
2016-12-27T10:49:41.164Z,8.94
2016-12-27T10:50:41.183Z,8.94
2016-12-27T10:51:41.204Z,8.8
2016-12-27T10:53:41.242Z,8.95
2016-12-27T10:54:41.265Z,8.99
2016-12-27T10:55:41.278Z,8.91
2016-12-27T10:56:41.299Z,8.95
2016-12-27T10:57:41.319Z,8.94
2016-12-27T10:59:56.277Z,8.87
2016-12-27T11:00:41.375Z,8.84
2016-12-27T11:01:41.396Z,8.91
2016-12-27T11:02:41.412Z,8.89
2016-12-27T11:03:41.430Z,8.8
2016-12-27T11:04:41.453Z,8.84
2016-12-27T11:05:41.468Z,8.92
2016-12-27T11:06:41.488Z,8.83
2016-12-27T11:07:41.508Z,8.91
2016-12-27T11:08:41.529Z,8.87
2016-12-27T11:09:41.545Z,8.86
2016-12-27T11:11:41.584Z,8.91
2016-12-27T11:12:41.603Z,8.87
2016-12-27T11:13:41.621Z,8.92
2016-12-27T11:14:41.644Z,8.86
2016-12-27T11:15:41.660Z,8.92
2016-12-27T11:16:41.682Z,8.8
2016-12-27T11:17:41.697Z,8.83
2016-12-27T11:18:41.717Z,8.91
2016-12-27T11:19:41.734Z,8.91
2016-12-27T11:20:56.673Z,8.99
2016-12-27T11:21:41.773Z,8.96
2016-12-27T11:22:41.820Z,8.92
2016-12-27T11:23:41.810Z,8.98
2016-12-27T11:24:41.833Z,8.87
2016-12-27T11:26:41.896Z,8.84
2016-12-27T11:28:41.907Z,8.89
2016-12-27T11:29:41.925Z,8.92
2016-12-27T11:30:41.944Z,8.98
2016-12-27T11:31:41.963Z,8.81
2016-12-27T11:32:41.984Z,8.87
2016-12-27T11:33:42.002Z,8.91
2016-12-27T11:34:42.029Z,8.99
2016-12-27T11:35:42.039Z,8.89
2016-12-27T11:36:56.981Z,8.84
2016-12-27T11:37:42.081Z,8.81
2016-12-27T11:38:42.097Z,8.92
2016-12-27T11:39:42.117Z,8.86
2016-12-27T11:40:42.138Z,8.87
2016-12-27T11:41:42.157Z,8.83
2016-12-27T11:42:42.175Z,8.87
2016-12-27T11:44:42.213Z,8.89
2016-12-27T11:45:42.231Z,8.95
2016-12-27T11:46:42.253Z,8.98
2016-12-27T11:47:42.270Z,8.95
2016-12-27T11:48:42.295Z,8.98
2016-12-27T11:49:42.309Z,8.81
2016-12-27T11:50:42.330Z,8.95
2016-12-27T11:51:42.347Z,9.1
2016-12-27T11:52:57.287Z,9.04
2016-12-27T11:53:42.386Z,9.2
2016-12-27T11:54:42.406Z,9.11
2016-12-27T11:55:42.432Z,9.26
2016-12-27T11:56:42.444Z,9.31
2016-12-27T11:57:42.465Z,9.2
2016-12-27T11:58:42.509Z,9.26
2016-12-27T11:59:42.506Z,9.13
2016-12-27T12:00:42.524Z,9.15
2016-12-27T12:01:42.542Z,9.13
2016-12-27T12:02:57.482Z,9.1
2016-12-27T12:03:42.581Z,9.1
2016-12-27T12:04:42.605Z,9.11
2016-12-27T12:05:42.621Z,9.17
2016-12-27T12:06:42.643Z,9.24
2016-12-27T12:07:42.660Z,9.2
2016-12-27T12:08:57.628Z,9.17
2016-12-27T12:09:42.707Z,9.05
2016-12-27T12:10:42.718Z,9.14
2016-12-27T12:11:42.738Z,9.13
2016-12-27T12:12:42.758Z,9.26
2016-12-27T12:14:42.796Z,9.08
2016-12-27T12:15:42.817Z,9.04
2016-12-27T12:17:43.170Z,9.04
2016-12-27T12:18:42.877Z,9.14
2016-12-27T12:19:42.895Z,9.05
2016-12-27T12:20:57.835Z,9.08
2016-12-27T12:21:42.935Z,9.05
2016-12-27T12:22:42.959Z,9.08
2016-12-27T12:23:57.895Z,9.18
2016-12-27T12:24:42.999Z,9.08
2016-12-27T12:25:43.015Z,9.02
2016-12-27T12:26:43.041Z,9.08
2016-12-27T12:27:43.055Z,9.14
2016-12-27T12:29:43.093Z,9.11
2016-12-27T12:30:43.117Z,9.15
2016-12-27T12:31:43.134Z,9.26
2016-12-27T12:32:43.152Z,9.35
2016-12-27T12:33:43.172Z,9.24
2016-12-27T12:34:43.192Z,9.33
2016-12-27T12:35:43.217Z,9.2
2016-12-27T12:36:43.233Z,9.26
2016-12-27T12:37:58.201Z,9.18
2016-12-27T12:38:43.273Z,9.13
2016-12-27T12:39:43.292Z,9.39
2016-12-27T12:40:43.314Z,9.21
2016-12-27T12:41:43.330Z,9.28
2016-12-27T12:42:43.349Z,9.33
2016-12-27T12:43:43.372Z,9.33
2016-12-27T12:44:43.391Z,9.18
2016-12-27T12:48:43.477Z,9.13
2016-12-27T12:49:43.489Z,9.18
2016-12-27T12:50:58.429Z,9.04
2016-12-27T12:51:58.448Z,9.01
2016-12-27T12:52:43.547Z,9.1
2016-12-27T12:53:43.572Z,9.08
2016-12-27T12:54:43.586Z,9.18
2016-12-27T12:55:58.526Z,9.17
2016-12-27T12:56:43.630Z,9.18
2016-12-27T12:57:43.648Z,9.14
2016-12-27T12:58:43.666Z,9.08
2016-12-27T12:59:43.688Z,8.99
2016-12-27T13:01:43.726Z,8.94
2016-12-27T13:02:43.747Z,8.92
2016-12-27T13:03:43.766Z,8.87
2016-12-27T13:04:43.791Z,8.84
2016-12-27T13:05:43.806Z,8.89
2016-12-27T13:06:58.743Z,8.86
2016-12-27T13:07:58.762Z,8.84
2016-12-27T13:08:43.865Z,8.96
2016-12-27T13:09:43.882Z,8.98
2016-12-27T13:10:43.901Z,8.95
2016-12-27T13:11:58.840Z,8.95
2016-12-27T13:12:43.941Z,8.99
2016-12-27T13:13:43.964Z,9.02
2016-12-27T13:14:43.986Z,8.95
2016-12-27T13:15:44.023Z,9.01
2016-12-27T13:16:44.019Z,8.96
2016-12-27T13:17:44.039Z,9.05
2016-12-27T13:18:44.080Z,9.04
2016-12-27T13:19:44.077Z,9.02
2016-12-27T13:20:44.098Z,8.86
2016-12-27T13:21:44.120Z,8.86
2016-12-27T13:22:44.136Z,8.83
2016-12-27T13:23:44.156Z,8.73
2016-12-27T13:24:44.180Z,8.66
2016-12-27T13:25:44.200Z,8.61
2016-12-27T13:26:44.214Z,8.68
2016-12-27T13:27:59.180Z,8.74
2016-12-27T13:28:44.252Z,8.65
2016-12-27T13:29:44.273Z,8.56
2016-12-27T13:30:44.294Z,8.61
2016-12-27T13:31:44.313Z,8.56
2016-12-27T13:32:44.331Z,8.56
2016-12-27T13:33:44.355Z,8.56
2016-12-27T13:35:44.391Z,8.56
2016-12-27T13:36:44.414Z,8.56
2016-12-27T13:37:44.429Z,8.7
2016-12-27T13:38:44.449Z,8.68
2016-12-27T13:39:59.692Z,8.62
2016-12-27T13:40:44.489Z,8.56
2016-12-27T13:41:44.509Z,8.56
2016-12-27T13:42:44.527Z,8.56
2016-12-27T13:43:59.466Z,8.44
2016-12-27T13:44:44.566Z,8.5
2016-12-27T13:45:44.587Z,8.44
2016-12-27T13:46:44.605Z,8.44
2016-12-27T13:47:44.626Z,8.45
2016-12-27T13:48:44.644Z,8.41
2016-12-27T13:49:44.661Z,8.44
2016-12-27T13:50:44.683Z,8.45
2016-12-27T13:51:44.702Z,8.41
2016-12-27T13:52:44.722Z,8.43
2016-12-27T13:53:44.738Z,8.36
2016-12-27T13:54:59.679Z,8.4
2016-12-27T13:55:59.697Z,8.33
2016-12-27T13:56:44.797Z,8.36
2016-12-27T13:57:44.821Z,8.23
2016-12-27T13:58:59.757Z,8.28
2016-12-27T13:59:44.858Z,8.33
2016-12-27T14:00:44.875Z,8.36
2016-12-27T14:01:44.901Z,8.3
2016-12-27T14:02:44.915Z,8.26
2016-12-27T14:03:44.932Z,8.22
2016-12-27T14:04:44.955Z,8.22
2016-12-27T14:05:44.972Z,8.23
2016-12-27T14:06:45.302Z,8.15
2016-12-27T14:07:45.009Z,8.04
2016-12-27T14:08:45.027Z,8.12
2016-12-27T14:09:59.969Z,8.07
2016-12-27T14:10:45.070Z,8.07
2016-12-27T14:11:45.090Z,8.11
2016-12-27T14:12:45.103Z,7.97
2016-12-27T14:13:45.123Z,8
2016-12-27T14:14:45.145Z,8.04
2016-12-27T14:15:45.161Z,7.98
2016-12-27T14:16:45.182Z,8
2016-12-27T14:17:45.200Z,8
2016-12-27T14:18:45.218Z,7.98
2016-12-27T14:19:45.239Z,8.01
2016-12-27T14:20:45.256Z,8.01